RORK(METAR)
08/25 23:00
METAR RORK 251400Z AUTO 11013KT 9999 SCT018 29/25 Q1014 RMK A2996=
戻る
トップページへ戻る
IMOC Co,.Ltd.